sensor_id;sensor_type;location;lat;lon;timestamp;temperature;humidity
18297;DHT22;18066;52.106;5.534;2022-09-09T00:00:47;16.40;99.90
18297;DHT22;18066;52.106;5.534;2022-09-09T00:03:17;16.40;99.90
18297;DHT22;18066;52.106;5.534;2022-09-09T00:05:54;16.50;99.90
18297;DHT22;18066;52.106;5.534;2022-09-09T00:08:27;16.60;99.90
18297;DHT22;18066;52.106;5.534;2022-09-09T00:11:01;16.70;99.90
18297;DHT22;18066;52.106;5.534;2022-09-09T00:13:34;16.70;99.90
18297;DHT22;18066;52.106;5.534;2022-09-09T00:16:07;16.70;99.90
18297;DHT22;18066;52.106;5.534;2022-09-09T00:18:42;16.70;99.90
18297;DHT22;18066;52.106;5.534;2022-09-09T00:21:13;16.70;99.90
18297;DHT22;18066;52.106;5.534;2022-09-09T00:23:46;16.70;99.90
18297;DHT22;18066;52.106;5.534;2022-09-09T00:26:19;16.80;99.90
18297;DHT22;18066;52.106;5.534;2022-09-09T00:28:52;16.70;99.90
18297;DHT22;18066;52.106;5.534;2022-09-09T00:31:25;16.80;99.90
18297;DHT22;18066;52.106;5.534;2022-09-09T00:33:53;16.80;99.90
18297;DHT22;18066;52.106;5.534;2022-09-09T00:36:24;16.80;99.90
18297;DHT22;18066;52.106;5.534;2022-09-09T00:38:56;16.80;99.90
18297;DHT22;18066;52.106;5.534;2022-09-09T00:41:32;16.80;99.90
18297;DHT22;18066;52.106;5.534;2022-09-09T00:44:14;16.80;99.90
18297;DHT22;18066;52.106;5.534;2022-09-09T00:46:56;16.60;99.90
18297;DHT22;18066;52.106;5.534;2022-09-09T00:49:35;16.60;99.90
18297;DHT22;18066;52.106;5.534;2022-09-09T00:52:19;16.60;99.90
18297;DHT22;18066;52.106;5.534;2022-09-09T00:54:55;16.50;99.90
18297;DHT22;18066;52.106;5.534;2022-09-09T00:57:26;16.50;99.90
18297;DHT22;18066;52.106;5.534;2022-09-09T00:59:59;16.50;99.90
18297;DHT22;18066;52.106;5.534;2022-09-09T01:02:37;16.40;99.90
18297;DHT22;18066;52.106;5.534;2022-09-09T01:05:10;16.30;99.90
18297;DHT22;18066;52.106;5.534;2022-09-09T01:07:40;16.20;99.90
18297;DHT22;18066;52.106;5.534;2022-09-09T01:10:17;16.20;99.90
18297;DHT22;18066;52.106;5.534;2022-09-09T01:12:52;16.10;99.90
18297;DHT22;18066;52.106;5.534;2022-09-09T01:15:22;16.00;99.90
18297;DHT22;18066;52.106;5.534;2022-09-09T01:17:55;15.90;99.90
18297;DHT22;18066;52.106;5.534;2022-09-09T01:20:27;15.80;99.90
18297;DHT22;18066;52.106;5.534;2022-09-09T01:23:13;15.80;99.90
18297;DHT22;18066;52.106;5.534;2022-09-09T01:26:13;15.70;99.90
18297;DHT22;18066;52.106;5.534;2022-09-09T01:28:43;15.60;99.90
18297;DHT22;18066;52.106;5.534;2022-09-09T01:31:14;15.60;99.90
18297;DHT22;18066;52.106;5.534;2022-09-09T01:33:41;15.50;99.90
18297;DHT22;18066;52.106;5.534;2022-09-09T01:36:11;15.60;99.90
18297;DHT22;18066;52.106;5.534;2022-09-09T01:38:39;15.50;99.90
18297;DHT22;18066;52.106;5.534;2022-09-09T01:41:06;15.60;99.90
18297;DHT22;18066;52.106;5.534;2022-09-09T01:43:34;15.60;99.90
18297;DHT22;18066;52.106;5.534;2022-09-09T01:46:01;15.60;99.90
18297;DHT22;18066;52.106;5.534;2022-09-09T01:48:29;15.60;99.90
18297;DHT22;18066;52.106;5.534;2022-09-09T01:50:56;15.70;99.90
18297;DHT22;18066;52.106;5.534;2022-09-09T01:53:23;15.70;99.90
18297;DHT22;18066;52.106;5.534;2022-09-09T01:55:58;15.70;99.90
18297;DHT22;18066;52.106;5.534;2022-09-09T01:58:37;15.70;99.90
18297;DHT22;18066;52.106;5.534;2022-09-09T02:01:17;15.70;99.90
18297;DHT22;18066;52.106;5.534;2022-09-09T02:03:51;15.60;99.90
18297;DHT22;18066;52.106;5.534;2022-09-09T02:06:28;15.60;99.90
18297;DHT22;18066;52.106;5.534;2022-09-09T02:08:58;15.60;99.90
18297;DHT22;18066;52.106;5.534;2022-09-09T02:11:28;15.60;99.90
18297;DHT22;18066;52.106;5.534;2022-09-09T02:14:00;15.60;99.90
18297;DHT22;18066;52.106;5.534;2022-09-09T02:16:31;15.70;99.90
18297;DHT22;18066;52.106;5.534;2022-09-09T02:19:01;15.70;99.90
18297;DHT22;18066;52.106;5.534;2022-09-09T02:21:31;15.70;99.90
18297;DHT22;18066;52.106;5.534;2022-09-09T02:24:03;15.80;99.90
18297;DHT22;18066;52.106;5.534;2022-09-09T02:26:31;15.80;99.90
18297;DHT22;18066;52.106;5.534;2022-09-09T02:29:03;15.70;99.90
18297;DHT22;18066;52.106;5.534;2022-09-09T02:31:33;15.80;99.90
18297;DHT22;18066;52.106;5.534;2022-09-09T02:34:03;15.80;99.90
18297;DHT22;18066;52.106;5.534;2022-09-09T02:36:33;15.80;99.90
18297;DHT22;18066;52.106;5.534;2022-09-09T02:39:00;15.80;99.90
18297;DHT22;18066;52.106;5.534;2022-09-09T02:41:31;15.90;99.90
18297;DHT22;18066;52.106;5.534;2022-09-09T02:43:59;15.80;99.90
18297;DHT22;18066;52.106;5.534;2022-09-09T02:46:36;15.80;99.90
18297;DHT22;18066;52.106;5.534;2022-09-09T02:49:09;15.70;99.90
18297;DHT22;18066;52.106;5.534;2022-09-09T02:51:40;15.70;99.90
18297;DHT22;18066;52.106;5.534;2022-09-09T02:54:17;15.70;99.90
18297;DHT22;18066;52.106;5.534;2022-09-09T02:56:52;15.70;99.90
18297;DHT22;18066;52.106;5.534;2022-09-09T02:59:19;15.80;99.90
18297;DHT22;18066;52.106;5.534;2022-09-09T03:01:48;15.70;99.90
18297;DHT22;18066;52.106;5.534;2022-09-09T03:04:14;15.70;99.90
18297;DHT22;18066;52.106;5.534;2022-09-09T03:06:41;15.70;99.90
18297;DHT22;18066;52.106;5.534;2022-09-09T03:09:08;15.70;99.90
18297;DHT22;18066;52.106;5.534;2022-09-09T03:11:36;15.70;99.90
18297;DHT22;18066;52.106;5.534;2022-09-09T03:14:04;15.70;99.90
18297;DHT22;18066;52.106;5.534;2022-09-09T03:16:30;15.80;99.90
18297;DHT22;18066;52.106;5.534;2022-09-09T03:18:59;15.70;99.90
18297;DHT22;18066;52.106;5.534;2022-09-09T03:21:26;15.70;99.90
18297;DHT22;18066;52.106;5.534;2022-09-09T03:23:53;15.70;99.90
18297;DHT22;18066;52.106;5.534;2022-09-09T03:26:19;15.70;99.90
18297;DHT22;18066;52.106;5.534;2022-09-09T03:28:46;15.70;99.90
18297;DHT22;18066;52.106;5.534;2022-09-09T03:31:13;15.60;99.90
18297;DHT22;18066;52.106;5.534;2022-09-09T03:33:40;15.70;99.90
18297;DHT22;18066;52.106;5.534;2022-09-09T03:36:09;15.70;99.90
18297;DHT22;18066;52.106;5.534;2022-09-09T03:38:35;15.70;99.90
18297;DHT22;18066;52.106;5.534;2022-09-09T03:41:02;15.60;99.90
18297;DHT22;18066;52.106;5.534;2022-09-09T03:43:32;15.60;99.90
18297;DHT22;18066;52.106;5.534;2022-09-09T03:45:58;15.60;99.90
18297;DHT22;18066;52.106;5.534;2022-09-09T03:48:26;15.60;99.90
18297;DHT22;18066;52.106;5.534;2022-09-09T03:50:54;15.60;99.90
18297;DHT22;18066;52.106;5.534;2022-09-09T03:53:23;15.60;99.90
18297;DHT22;18066;52.106;5.534;2022-09-09T03:55:53;15.50;99.90
18297;DHT22;18066;52.106;5.534;2022-09-09T03:58:21;15.40;99.90
18297;DHT22;18066;52.106;5.534;2022-09-09T04:00:54;15.50;99.90
18297;DHT22;18066;52.106;5.534;2022-09-09T04:03:22;15.50;99.90
18297;DHT22;18066;52.106;5.534;2022-09-09T04:05:50;15.50;99.90
18297;DHT22;18066;52.106;5.534;2022-09-09T04:08:17;15.50;99.90
18297;DHT22;18066;52.106;5.534;2022-09-09T04:10:47;15.50;99.90
18297;DHT22;18066;52.106;5.534;2022-09-09T04:13:14;15.50;99.90
18297;DHT22;18066;52.106;5.534;2022-09-09T04:15:43;15.50;99.90
18297;DHT22;18066;52.106;5.534;2022-09-09T04:18:10;15.50;99.90
18297;DHT22;18066;52.106;5.534;2022-09-09T04:20:37;15.40;99.90
18297;DHT22;18066;52.106;5.534;2022-09-09T04:23:04;15.40;99.90
18297;DHT22;18066;52.106;5.534;2022-09-09T04:25:31;15.30;99.90
18297;DHT22;18066;52.106;5.534;2022-09-09T04:28:01;15.30;99.90
18297;DHT22;18066;52.106;5.534;2022-09-09T04:30:28;15.30;99.90
18297;DHT22;18066;52.106;5.534;2022-09-09T04:32:54;15.40;99.90
18297;DHT22;18066;52.106;5.534;2022-09-09T04:35:21;15.40;99.90
18297;DHT22;18066;52.106;5.534;2022-09-09T04:37:48;15.40;99.90
18297;DHT22;18066;52.106;5.534;2022-09-09T04:40:15;15.40;99.90
18297;DHT22;18066;52.106;5.534;2022-09-09T04:42:42;15.50;99.90
18297;DHT22;18066;52.106;5.534;2022-09-09T04:45:10;15.50;99.90
18297;DHT22;18066;52.106;5.534;2022-09-09T04:47:39;15.60;99.90
18297;DHT22;18066;52.106;5.534;2022-09-09T04:50:07;15.70;99.90
18297;DHT22;18066;52.106;5.534;2022-09-09T04:52:34;15.80;99.90
18297;DHT22;18066;52.106;5.534;2022-09-09T04:55:00;15.90;99.90
18297;DHT22;18066;52.106;5.534;2022-09-09T04:57:27;15.80;99.90
18297;DHT22;18066;52.106;5.534;2022-09-09T04:59:57;15.80;99.90
18297;DHT22;18066;52.106;5.534;2022-09-09T05:02:25;15.70;99.90
18297;DHT22;18066;52.106;5.534;2022-09-09T05:04:52;15.70;99.90
18297;DHT22;18066;52.106;5.534;2022-09-09T05:07:19;15.70;99.90
18297;DHT22;18066;52.106;5.534;2022-09-09T05:09:46;15.80;99.90
18297;DHT22;18066;52.106;5.534;2022-09-09T05:12:14;15.70;99.90
18297;DHT22;18066;52.106;5.534;2022-09-09T05:14:41;15.70;99.90
18297;DHT22;18066;52.106;5.534;2022-09-09T05:17:09;15.70;99.90
18297;DHT22;18066;52.106;5.534;2022-09-09T05:19:38;15.60;99.90
18297;DHT22;18066;52.106;5.534;2022-09-09T05:22:04;15.50;99.90
18297;DHT22;18066;52.106;5.534;2022-09-09T05:24:31;15.60;99.90
18297;DHT22;18066;52.106;5.534;2022-09-09T05:26:58;15.60;99.90
18297;DHT22;18066;52.106;5.534;2022-09-09T05:29:27;15.60;99.90
18297;DHT22;18066;52.106;5.534;2022-09-09T05:31:54;15.60;99.90
18297;DHT22;18066;52.106;5.534;2022-09-09T05:34:21;15.60;99.90
18297;DHT22;18066;52.106;5.534;2022-09-09T05:36:49;15.60;99.90
18297;DHT22;18066;52.106;5.534;2022-09-09T05:39:16;15.60;99.90
18297;DHT22;18066;52.106;5.534;2022-09-09T05:41:43;15.60;99.90
18297;DHT22;18066;52.106;5.534;2022-09-09T05:44:10;15.50;99.90
18297;DHT22;18066;52.106;5.534;2022-09-09T05:46:36;15.50;99.90
18297;DHT22;18066;52.106;5.534;2022-09-09T05:49:03;15.50;99.90
18297;DHT22;18066;52.106;5.534;2022-09-09T05:51:31;15.50;99.90
18297;DHT22;18066;52.106;5.534;2022-09-09T05:53:59;15.60;99.90
18297;DHT22;18066;52.106;5.534;2022-09-09T05:56:28;15.60;99.90
18297;DHT22;18066;52.106;5.534;2022-09-09T05:58:56;15.50;99.90
18297;DHT22;18066;52.106;5.534;2022-09-09T06:01:24;15.50;99.90
18297;DHT22;18066;52.106;5.534;2022-09-09T06:03:52;15.60;99.90
18297;DHT22;18066;52.106;5.534;2022-09-09T06:06:20;15.70;99.90
18297;DHT22;18066;52.106;5.534;2022-09-09T06:08:49;15.70;99.90
18297;DHT22;18066;52.106;5.534;2022-09-09T06:11:20;15.70;99.90
18297;DHT22;18066;52.106;5.534;2022-09-09T06:13:47;15.70;99.90
18297;DHT22;18066;52.106;5.534;2022-09-09T06:16:17;15.80;99.90
18297;DHT22;18066;52.106;5.534;2022-09-09T06:18:44;15.80;99.90
18297;DHT22;18066;52.106;5.534;2022-09-09T06:21:15;15.80;99.90
18297;DHT22;18066;52.106;5.534;2022-09-09T06:23:42;16.00;99.90
18297;DHT22;18066;52.106;5.534;2022-09-09T06:26:11;16.00;99.90
18297;DHT22;18066;52.106;5.534;2022-09-09T06:28:40;16.10;99.90
18297;DHT22;18066;52.106;5.534;2022-09-09T06:31:09;16.30;99.90
18297;DHT22;18066;52.106;5.534;2022-09-09T06:33:38;16.30;99.90
18297;DHT22;18066;52.106;5.534;2022-09-09T06:36:07;16.30;99.90
18297;DHT22;18066;52.106;5.534;2022-09-09T06:38:36;16.40;99.90
18297;DHT22;18066;52.106;5.534;2022-09-09T06:41:03;16.40;99.90
18297;DHT22;18066;52.106;5.534;2022-09-09T06:43:31;16.50;99.90
18297;DHT22;18066;52.106;5.534;2022-09-09T06:46:01;16.50;99.90
18297;DHT22;18066;52.106;5.534;2022-09-09T06:48:28;16.60;99.90
18297;DHT22;18066;52.106;5.534;2022-09-09T06:51:02;16.70;99.90
18297;DHT22;18066;52.106;5.534;2022-09-09T06:53:30;16.80;99.90
18297;DHT22;18066;52.106;5.534;2022-09-09T06:55:59;16.90;99.90
18297;DHT22;18066;52.106;5.534;2022-09-09T06:58:26;17.00;99.90
18297;DHT22;18066;52.106;5.534;2022-09-09T07:01:02;17.10;99.90
18297;DHT22;18066;52.106;5.534;2022-09-09T07:03:28;17.10;99.90
18297;DHT22;18066;52.106;5.534;2022-09-09T07:05:55;17.20;99.90
18297;DHT22;18066;52.106;5.534;2022-09-09T07:08:22;17.30;99.90
18297;DHT22;18066;52.106;5.534;2022-09-09T07:10:50;17.30;99.90
18297;DHT22;18066;52.106;5.534;2022-09-09T07:13:19;17.30;99.90
18297;DHT22;18066;52.106;5.534;2022-09-09T07:15:46;17.30;99.90
18297;DHT22;18066;52.106;5.534;2022-09-09T07:18:14;17.30;99.90
18297;DHT22;18066;52.106;5.534;2022-09-09T07:20:41;17.30;99.90
18297;DHT22;18066;52.106;5.534;2022-09-09T07:23:08;17.40;99.90
18297;DHT22;18066;52.106;5.534;2022-09-09T07:25:34;17.50;99.90
18297;DHT22;18066;52.106;5.534;2022-09-09T07:28:01;17.70;99.90
18297;DHT22;18066;52.106;5.534;2022-09-09T07:30:28;17.80;99.90
18297;DHT22;18066;52.106;5.534;2022-09-09T07:32:55;17.90;99.90
18297;DHT22;18066;52.106;5.534;2022-09-09T07:35:25;17.90;99.90
18297;DHT22;18066;52.106;5.534;2022-09-09T07:37:52;18.00;99.90
18297;DHT22;18066;52.106;5.534;2022-09-09T07:40:19;18.00;99.90
18297;DHT22;18066;52.106;5.534;2022-09-09T07:42:47;17.80;99.90
18297;DHT22;18066;52.106;5.534;2022-09-09T07:45:14;17.60;99.90
18297;DHT22;18066;52.106;5.534;2022-09-09T07:47:41;17.60;99.90
18297;DHT22;18066;52.106;5.534;2022-09-09T07:50:08;17.70;99.90
18297;DHT22;18066;52.106;5.534;2022-09-09T07:52:39;17.60;99.90
18297;DHT22;18066;52.106;5.534;2022-09-09T07:55:05;17.70;99.90
18297;DHT22;18066;52.106;5.534;2022-09-09T07:57:32;17.70;99.90
18297;DHT22;18066;52.106;5.534;2022-09-09T07:59:59;17.80;99.90
18297;DHT22;18066;52.106;5.534;2022-09-09T08:02:26;17.80;99.90
18297;DHT22;18066;52.106;5.534;2022-09-09T08:04:54;17.70;99.90
18297;DHT22;18066;52.106;5.534;2022-09-09T08:07:21;17.60;99.90
18297;DHT22;18066;52.106;5.534;2022-09-09T08:09:50;17.70;99.90
18297;DHT22;18066;52.106;5.534;2022-09-09T08:12:16;17.70;99.90
18297;DHT22;18066;52.106;5.534;2022-09-09T08:14:43;17.70;99.90
18297;DHT22;18066;52.106;5.534;2022-09-09T08:17:10;17.60;99.90
18297;DHT22;18066;52.106;5.534;2022-09-09T08:19:37;17.60;99.90
18297;DHT22;18066;52.106;5.534;2022-09-09T08:22:03;17.60;99.90
18297;DHT22;18066;52.106;5.534;2022-09-09T08:24:30;17.70;99.90
18297;DHT22;18066;52.106;5.534;2022-09-09T08:26:58;17.80;99.90
18297;DHT22;18066;52.106;5.534;2022-09-09T08:29:25;17.80;99.90
18297;DHT22;18066;52.106;5.534;2022-09-09T08:31:55;17.90;99.90
18297;DHT22;18066;52.106;5.534;2022-09-09T08:34:22;17.90;99.90
18297;DHT22;18066;52.106;5.534;2022-09-09T08:36:52;17.90;99.90
18297;DHT22;18066;52.106;5.534;2022-09-09T08:39:21;18.00;99.90
18297;DHT22;18066;52.106;5.534;2022-09-09T08:42:22;18.00;99.90
18297;DHT22;18066;52.106;5.534;2022-09-09T08:45:12;18.00;99.90
18297;DHT22;18066;52.106;5.534;2022-09-09T08:47:50;17.90;99.90
18297;DHT22;18066;52.106;5.534;2022-09-09T08:50:22;17.80;99.90
18297;DHT22;18066;52.106;5.534;2022-09-09T08:52:56;17.80;99.90
18297;DHT22;18066;52.106;5.534;2022-09-09T08:55:34;17.80;99.90
18297;DHT22;18066;52.106;5.534;2022-09-09T08:58:09;17.80;99.90
18297;DHT22;18066;52.106;5.534;2022-09-09T09:00:45;17.90;99.90
18297;DHT22;18066;52.106;5.534;2022-09-09T09:03:22;18.00;99.90
18297;DHT22;18066;52.106;5.534;2022-09-09T09:05:58;17.90;99.90
18297;DHT22;18066;52.106;5.534;2022-09-09T09:08:29;17.90;99.90
18297;DHT22;18066;52.106;5.534;2022-09-09T09:11:00;17.90;99.90
18297;DHT22;18066;52.106;5.534;2022-09-09T09:13:34;17.90;99.90
18297;DHT22;18066;52.106;5.534;2022-09-09T09:16:13;18.00;99.90
18297;DHT22;18066;52.106;5.534;2022-09-09T09:18:41;17.90;99.90
18297;DHT22;18066;52.106;5.534;2022-09-09T09:21:12;17.90;99.90
18297;DHT22;18066;52.106;5.534;2022-09-09T09:23:45;17.90;99.90
18297;DHT22;18066;52.106;5.534;2022-09-09T09:26:16;17.90;99.90
18297;DHT22;18066;52.106;5.534;2022-09-09T09:28:45;17.80;99.90
18297;DHT22;18066;52.106;5.534;2022-09-09T09:31:13;17.80;99.90
18297;DHT22;18066;52.106;5.534;2022-09-09T09:33:47;17.80;99.90
18297;DHT22;18066;52.106;5.534;2022-09-09T09:36:15;17.80;99.90
18297;DHT22;18066;52.106;5.534;2022-09-09T09:38:53;17.90;99.90
18297;DHT22;18066;52.106;5.534;2022-09-09T09:41:30;17.90;99.90
18297;DHT22;18066;52.106;5.534;2022-09-09T09:43:58;18.00;99.90
18297;DHT22;18066;52.106;5.534;2022-09-09T09:46:27;18.10;99.90
18297;DHT22;18066;52.106;5.534;2022-09-09T09:48:58;18.10;99.90
18297;DHT22;18066;52.106;5.534;2022-09-09T09:51:26;18.00;99.90
18297;DHT22;18066;52.106;5.534;2022-09-09T09:53:54;18.20;99.90
18297;DHT22;18066;52.106;5.534;2022-09-09T09:56:27;18.10;99.90
18297;DHT22;18066;52.106;5.534;2022-09-09T09:58:55;18.20;99.90
18297;DHT22;18066;52.106;5.534;2022-09-09T10:01:24;18.30;99.90
18297;DHT22;18066;52.106;5.534;2022-09-09T10:03:54;18.20;99.90
18297;DHT22;18066;52.106;5.534;2022-09-09T10:06:30;18.20;99.90
18297;DHT22;18066;52.106;5.534;2022-09-09T10:08:57;18.20;99.90
18297;DHT22;18066;52.106;5.534;2022-09-09T10:11:33;18.20;99.90
18297;DHT22;18066;52.106;5.534;2022-09-09T10:14:05;18.30;99.90
18297;DHT22;18066;52.106;5.534;2022-09-09T10:16:48;18.40;99.90
18297;DHT22;18066;52.106;5.534;2022-09-09T10:19:28;18.40;99.90
18297;DHT22;18066;52.106;5.534;2022-09-09T10:22:05;18.40;99.90
18297;DHT22;18066;52.106;5.534;2022-09-09T10:27:40;18.30;99.90
18297;DHT22;18066;52.106;5.534;2022-09-09T10:30:15;18.30;99.90
18297;DHT22;18066;52.106;5.534;2022-09-09T10:32:49;18.20;99.90
18297;DHT22;18066;52.106;5.534;2022-09-09T10:35:31;18.30;99.90
18297;DHT22;18066;52.106;5.534;2022-09-09T10:38:16;18.30;99.90
18297;DHT22;18066;52.106;5.534;2022-09-09T10:40:58;18.30;99.90
18297;DHT22;18066;52.106;5.534;2022-09-09T10:43:39;18.20;99.90
18297;DHT22;18066;52.106;5.534;2022-09-09T10:46:14;18.00;99.90
18297;DHT22;18066;52.106;5.534;2022-09-09T10:48:55;17.80;99.90
18297;DHT22;18066;52.106;5.534;2022-09-09T10:51:36;17.70;99.90
18297;DHT22;18066;52.106;5.534;2022-09-09T10:54:17;17.60;99.90
18297;DHT22;18066;52.106;5.534;2022-09-09T10:56:51;17.70;99.90
18297;DHT22;18066;52.106;5.534;2022-09-09T10:59:23;17.80;99.90
18297;DHT22;18066;52.106;5.534;2022-09-09T11:01:54;18.00;99.90
18297;DHT22;18066;52.106;5.534;2022-09-09T11:04:28;18.20;99.90
18297;DHT22;18066;52.106;5.534;2022-09-09T11:07:00;18.40;99.90
18297;DHT22;18066;52.106;5.534;2022-09-09T11:09:33;18.60;99.90
18297;DHT22;18066;52.106;5.534;2022-09-09T11:12:02;18.80;99.90
18297;DHT22;18066;52.106;5.534;2022-09-09T11:14:32;19.00;99.90
18297;DHT22;18066;52.106;5.534;2022-09-09T11:17:02;19.10;99.90
18297;DHT22;18066;52.106;5.534;2022-09-09T11:19:34;19.20;99.90
18297;DHT22;18066;52.106;5.534;2022-09-09T11:22:04;19.40;99.90
18297;DHT22;18066;52.106;5.534;2022-09-09T11:24:36;19.50;99.90
18297;DHT22;18066;52.106;5.534;2022-09-09T11:27:09;19.50;99.90
18297;DHT22;18066;52.106;5.534;2022-09-09T11:30:02;19.40;99.90
18297;DHT22;18066;52.106;5.534;2022-09-09T11:32:45;19.50;99.90
18297;DHT22;18066;52.106;5.534;2022-09-09T11:35:29;19.40;99.90
18297;DHT22;18066;52.106;5.534;2022-09-09T11:38:15;19.30;99.90
18297;DHT22;18066;52.106;5.534;2022-09-09T11:40:44;19.20;99.90
18297;DHT22;18066;52.106;5.534;2022-09-09T11:43:13;19.30;99.90
18297;DHT22;18066;52.106;5.534;2022-09-09T11:45:42;19.60;99.90
18297;DHT22;18066;52.106;5.534;2022-09-09T11:48:23;19.80;99.90
18297;DHT22;18066;52.106;5.534;2022-09-09T11:51:00;19.90;99.90
18297;DHT22;18066;52.106;5.534;2022-09-09T11:53:28;19.80;99.90
18297;DHT22;18066;52.106;5.534;2022-09-09T11:56:04;19.60;99.90
18297;DHT22;18066;52.106;5.534;2022-09-09T11:58:38;19.40;99.90
18297;DHT22;18066;52.106;5.534;2022-09-09T12:01:25;19.40;99.90
18297;DHT22;18066;52.106;5.534;2022-09-09T12:04:09;19.20;99.90
18297;DHT22;18066;52.106;5.534;2022-09-09T12:06:44;19.10;99.90
18297;DHT22;18066;52.106;5.534;2022-09-09T12:09:19;19.00;99.90
18297;DHT22;18066;52.106;5.534;2022-09-09T12:11:49;19.00;99.90
18297;DHT22;18066;52.106;5.534;2022-09-09T12:14:21;19.00;99.90
18297;DHT22;18066;52.106;5.534;2022-09-09T12:16:48;19.10;99.90
18297;DHT22;18066;52.106;5.534;2022-09-09T12:19:17;19.00;99.90
18297;DHT22;18066;52.106;5.534;2022-09-09T12:21:51;18.90;99.90
18297;DHT22;18066;52.106;5.534;2022-09-09T12:24:25;18.90;99.90
18297;DHT22;18066;52.106;5.534;2022-09-09T12:26:58;18.80;99.90
18297;DHT22;18066;52.106;5.534;2022-09-09T12:29:32;18.60;99.90
18297;DHT22;18066;52.106;5.534;2022-09-09T12:32:06;18.50;99.90
18297;DHT22;18066;52.106;5.534;2022-09-09T12:34:38;18.40;99.90
18297;DHT22;18066;52.106;5.534;2022-09-09T12:37:15;18.30;99.90
18297;DHT22;18066;52.106;5.534;2022-09-09T12:39:46;18.30;99.90
18297;DHT22;18066;52.106;5.534;2022-09-09T12:42:17;18.20;99.90
18297;DHT22;18066;52.106;5.534;2022-09-09T12:44:51;18.10;99.90
18297;DHT22;18066;52.106;5.534;2022-09-09T12:47:19;18.40;99.90
18297;DHT22;18066;52.106;5.534;2022-09-09T12:49:48;18.60;99.90
18297;DHT22;18066;52.106;5.534;2022-09-09T12:52:22;18.90;99.90
18297;DHT22;18066;52.106;5.534;2022-09-09T12:54:50;19.20;99.90
18297;DHT22;18066;52.106;5.534;2022-09-09T12:57:19;19.20;99.90
18297;DHT22;18066;52.106;5.534;2022-09-09T12:59:46;19.20;99.90
18297;DHT22;18066;52.106;5.534;2022-09-09T13:02:21;19.20;99.90
18297;DHT22;18066;52.106;5.534;2022-09-09T13:04:49;19.10;99.90
18297;DHT22;18066;52.106;5.534;2022-09-09T13:07:18;19.20;99.90
18297;DHT22;18066;52.106;5.534;2022-09-09T13:09:46;19.30;99.90
18297;DHT22;18066;52.106;5.534;2022-09-09T13:12:18;19.20;99.90
18297;DHT22;18066;52.106;5.534;2022-09-09T13:14:47;19.10;99.90
18297;DHT22;18066;52.106;5.534;2022-09-09T13:17:20;19.00;99.90
18297;DHT22;18066;52.106;5.534;2022-09-09T13:19:47;18.70;99.90
18297;DHT22;18066;52.106;5.534;2022-09-09T13:22:21;18.70;99.90
18297;DHT22;18066;52.106;5.534;2022-09-09T13:24:59;18.60;99.90
18297;DHT22;18066;52.106;5.534;2022-09-09T13:27:30;18.50;99.90
18297;DHT22;18066;52.106;5.534;2022-09-09T13:29:57;18.50;99.90
18297;DHT22;18066;52.106;5.534;2022-09-09T13:32:26;18.40;99.90
18297;DHT22;18066;52.106;5.534;2022-09-09T13:34:54;18.40;99.90
18297;DHT22;18066;52.106;5.534;2022-09-09T13:37:27;18.50;99.90
18297;DHT22;18066;52.106;5.534;2022-09-09T13:39:55;18.60;99.90
18297;DHT22;18066;52.106;5.534;2022-09-09T13:42:25;18.70;99.90
18297;DHT22;18066;52.106;5.534;2022-09-09T13:44:53;18.70;99.90
18297;DHT22;18066;52.106;5.534;2022-09-09T13:47:26;18.80;99.90
18297;DHT22;18066;52.106;5.534;2022-09-09T13:49:55;18.90;99.90
18297;DHT22;18066;52.106;5.534;2022-09-09T13:52:23;18.90;99.90
18297;DHT22;18066;52.106;5.534;2022-09-09T13:54:52;18.90;99.90
18297;DHT22;18066;52.106;5.534;2022-09-09T13:57:21;19.10;99.90
18297;DHT22;18066;52.106;5.534;2022-09-09T13:59:51;19.20;99.90
18297;DHT22;18066;52.106;5.534;2022-09-09T14:02:18;19.20;99.90
18297;DHT22;18066;52.106;5.534;2022-09-09T14:04:46;19.20;99.90
18297;DHT22;18066;52.106;5.534;2022-09-09T14:07:17;19.20;99.90
18297;DHT22;18066;52.106;5.534;2022-09-09T14:09:46;19.20;99.90
18297;DHT22;18066;52.106;5.534;2022-09-09T14:12:15;19.10;99.90
18297;DHT22;18066;52.106;5.534;2022-09-09T14:14:42;19.10;99.90
18297;DHT22;18066;52.106;5.534;2022-09-09T14:17:09;19.10;99.90
18297;DHT22;18066;52.106;5.534;2022-09-09T14:19:36;19.20;99.90
18297;DHT22;18066;52.106;5.534;2022-09-09T14:22:03;19.30;99.90
18297;DHT22;18066;52.106;5.534;2022-09-09T14:24:30;19.40;99.90
18297;DHT22;18066;52.106;5.534;2022-09-09T14:26:58;19.40;99.90
18297;DHT22;18066;52.106;5.534;2022-09-09T14:29:25;19.50;99.90
18297;DHT22;18066;52.106;5.534;2022-09-09T14:31:52;19.70;99.90
18297;DHT22;18066;52.106;5.534;2022-09-09T14:34:18;19.70;99.90
18297;DHT22;18066;52.106;5.534;2022-09-09T14:36:45;19.60;99.90
18297;DHT22;18066;52.106;5.534;2022-09-09T14:39:12;19.60;99.90
18297;DHT22;18066;52.106;5.534;2022-09-09T14:41:39;19.50;99.90
18297;DHT22;18066;52.106;5.534;2022-09-09T14:44:07;19.60;99.90
18297;DHT22;18066;52.106;5.534;2022-09-09T14:46:34;19.70;99.90
18297;DHT22;18066;52.106;5.534;2022-09-09T14:49:01;19.70;99.90
18297;DHT22;18066;52.106;5.534;2022-09-09T14:51:27;19.60;99.90
18297;DHT22;18066;52.106;5.534;2022-09-09T14:53:56;19.70;99.90
18297;DHT22;18066;52.106;5.534;2022-09-09T14:56:25;19.70;99.90
18297;DHT22;18066;52.106;5.534;2022-09-09T14:58:53;19.80;99.90
18297;DHT22;18066;52.106;5.534;2022-09-09T15:01:22;19.80;99.90
18297;DHT22;18066;52.106;5.534;2022-09-09T15:03:51;19.70;99.90
18297;DHT22;18066;52.106;5.534;2022-09-09T15:06:18;19.50;99.90
18297;DHT22;18066;52.106;5.534;2022-09-09T15:08:46;19.50;99.90
18297;DHT22;18066;52.106;5.534;2022-09-09T15:11:14;19.50;99.90
18297;DHT22;18066;52.106;5.534;2022-09-09T15:13:42;19.50;99.90
18297;DHT22;18066;52.106;5.534;2022-09-09T15:16:11;19.60;99.90
18297;DHT22;18066;52.106;5.534;2022-09-09T15:18:40;19.40;99.90
18297;DHT22;18066;52.106;5.534;2022-09-09T15:21:09;19.30;99.90
18297;DHT22;18066;52.106;5.534;2022-09-09T15:23:36;19.20;99.90
18297;DHT22;18066;52.106;5.534;2022-09-09T15:26:03;19.30;99.90
18297;DHT22;18066;52.106;5.534;2022-09-09T15:28:31;19.60;99.90
18297;DHT22;18066;52.106;5.534;2022-09-09T15:30:59;19.60;99.90
18297;DHT22;18066;52.106;5.534;2022-09-09T15:33:31;19.60;99.90
18297;DHT22;18066;52.106;5.534;2022-09-09T15:35:59;19.60;99.90
18297;DHT22;18066;52.106;5.534;2022-09-09T15:38:26;20.40;99.90
18297;DHT22;18066;52.106;5.534;2022-09-09T15:40:53;21.80;99.90
18297;DHT22;18066;52.106;5.534;2022-09-09T15:43:21;22.70;99.90
18297;DHT22;18066;52.106;5.534;2022-09-09T15:45:53;23.20;99.90
18297;DHT22;18066;52.106;5.534;2022-09-09T15:48:30;22.90;99.90
18297;DHT22;18066;52.106;5.534;2022-09-09T15:51:03;23.00;99.90
18297;DHT22;18066;52.106;5.534;2022-09-09T15:53:30;22.90;99.90